sensor_id;sensor_type;location;lat;lon;timestamp;temperature;humidity
71084;DHT22;58741;52.672;13.548;2022-10-15T00:02:09;12.70;92.50
71084;DHT22;58741;52.672;13.548;2022-10-15T00:04:34;12.70;92.70
71084;DHT22;58741;52.672;13.548;2022-10-15T00:07:00;12.70;92.50
71084;DHT22;58741;52.672;13.548;2022-10-15T00:09:25;12.70;92.80
71084;DHT22;58741;52.672;13.548;2022-10-15T00:11:51;12.70;92.60
71084;DHT22;58741;52.672;13.548;2022-10-15T00:14:17;12.70;92.60
71084;DHT22;58741;52.672;13.548;2022-10-15T00:16:42;12.70;92.50
71084;DHT22;58741;52.672;13.548;2022-10-15T00:19:08;12.70;92.80
71084;DHT22;58741;52.672;13.548;2022-10-15T00:21:34;12.70;92.80
71084;DHT22;58741;52.672;13.548;2022-10-15T00:24:00;12.70;92.80
71084;DHT22;58741;52.672;13.548;2022-10-15T00:26:27;12.70;92.80
71084;DHT22;58741;52.672;13.548;2022-10-15T00:28:58;12.70;92.90
71084;DHT22;58741;52.672;13.548;2022-10-15T00:31:26;12.70;92.80
71084;DHT22;58741;52.672;13.548;2022-10-15T00:33:54;12.70;92.90
71084;DHT22;58741;52.672;13.548;2022-10-15T00:36:31;12.70;93.20
71084;DHT22;58741;52.672;13.548;2022-10-15T00:38:58;12.70;93.70
71084;DHT22;58741;52.672;13.548;2022-10-15T00:41:26;12.70;93.60
71084;DHT22;58741;52.672;13.548;2022-10-15T00:43:57;12.70;93.70
71084;DHT22;58741;52.672;13.548;2022-10-15T00:46:37;12.70;93.40
71084;DHT22;58741;52.672;13.548;2022-10-15T00:49:19;12.70;93.30
71084;DHT22;58741;52.672;13.548;2022-10-15T00:51:51;12.70;93.70
71084;DHT22;58741;52.672;13.548;2022-10-15T00:54:18;12.70;93.60
71084;DHT22;58741;52.672;13.548;2022-10-15T00:56:45;12.70;93.40
71084;DHT22;58741;52.672;13.548;2022-10-15T00:59:12;12.70;93.40
71084;DHT22;58741;52.672;13.548;2022-10-15T01:01:39;12.70;93.90
71084;DHT22;58741;52.672;13.548;2022-10-15T01:04:05;12.60;93.60
71084;DHT22;58741;52.672;13.548;2022-10-15T01:06:31;12.60;93.90
71084;DHT22;58741;52.672;13.548;2022-10-15T01:08:57;12.70;94.30
71084;DHT22;58741;52.672;13.548;2022-10-15T01:19:59;12.60;94.20
71084;DHT22;58741;52.672;13.548;2022-10-15T01:25:28;12.60;94.10
71084;DHT22;58741;52.672;13.548;2022-10-15T01:30:47;12.60;94.40
71084;DHT22;58741;52.672;13.548;2022-10-15T01:33:21;12.60;94.30
71084;DHT22;58741;52.672;13.548;2022-10-15T01:36:06;12.60;94.90
71084;DHT22;58741;52.672;13.548;2022-10-15T01:39:00;12.70;94.80
71084;DHT22;58741;52.672;13.548;2022-10-15T01:41:39;12.60;95.20
71084;DHT22;58741;52.672;13.548;2022-10-15T01:44:30;12.70;95.50
71084;DHT22;58741;52.672;13.548;2022-10-15T01:47:04;12.70;95.80
71084;DHT22;58741;52.672;13.548;2022-10-15T01:49:33;12.70;95.70
71084;DHT22;58741;52.672;13.548;2022-10-15T01:52:13;12.70;95.60
71084;DHT22;58741;52.672;13.548;2022-10-15T01:54:40;12.70;95.60
71084;DHT22;58741;52.672;13.548;2022-10-15T01:57:07;12.70;96.20
71084;DHT22;58741;52.672;13.548;2022-10-15T01:59:35;12.70;95.50
71084;DHT22;58741;52.672;13.548;2022-10-15T02:02:00;12.70;95.30
71084;DHT22;58741;52.672;13.548;2022-10-15T02:04:28;12.70;95.70
71084;DHT22;58741;52.672;13.548;2022-10-15T02:07:25;12.70;95.70
71084;DHT22;58741;52.672;13.548;2022-10-15T02:10:17;12.70;95.40
71084;DHT22;58741;52.672;13.548;2022-10-15T02:15:40;12.70;96.00
71084;DHT22;58741;52.672;13.548;2022-10-15T02:18:28;12.80;96.30
71084;DHT22;58741;52.672;13.548;2022-10-15T02:21:00;12.80;96.10
71084;DHT22;58741;52.672;13.548;2022-10-15T02:24:04;12.80;96.10
71084;DHT22;58741;52.672;13.548;2022-10-15T02:26:30;12.80;96.20
71084;DHT22;58741;52.672;13.548;2022-10-15T02:28:59;12.80;95.90
71084;DHT22;58741;52.672;13.548;2022-10-15T02:31:25;12.80;96.40
71084;DHT22;58741;52.672;13.548;2022-10-15T02:33:57;12.80;96.10
71084;DHT22;58741;52.672;13.548;2022-10-15T02:36:24;12.80;96.80
71084;DHT22;58741;52.672;13.548;2022-10-15T02:38:51;12.80;96.40
71084;DHT22;58741;52.672;13.548;2022-10-15T02:41:18;12.80;96.20
71084;DHT22;58741;52.672;13.548;2022-10-15T02:43:45;12.80;95.90
71084;DHT22;58741;52.672;13.548;2022-10-15T02:46:12;12.80;96.40
71084;DHT22;58741;52.672;13.548;2022-10-15T02:48:38;12.90;96.40
71084;DHT22;58741;52.672;13.548;2022-10-15T02:51:04;12.90;96.80
71084;DHT22;58741;52.672;13.548;2022-10-15T02:53:30;12.90;96.90
71084;DHT22;58741;52.672;13.548;2022-10-15T02:55:55;12.90;96.60
71084;DHT22;58741;52.672;13.548;2022-10-15T02:58:21;12.90;96.40
71084;DHT22;58741;52.672;13.548;2022-10-15T03:00:46;12.90;96.50
71084;DHT22;58741;52.672;13.548;2022-10-15T03:03:11;12.90;96.30
71084;DHT22;58741;52.672;13.548;2022-10-15T03:05:37;12.90;96.20
71084;DHT22;58741;52.672;13.548;2022-10-15T03:08:02;12.90;95.90
71084;DHT22;58741;52.672;13.548;2022-10-15T03:10:28;12.90;96.00
71084;DHT22;58741;52.672;13.548;2022-10-15T03:12:53;12.90;96.10
71084;DHT22;58741;52.672;13.548;2022-10-15T03:15:19;12.90;96.90
71084;DHT22;58741;52.672;13.548;2022-10-15T03:17:45;12.90;96.60
71084;DHT22;58741;52.672;13.548;2022-10-15T03:20:10;12.90;96.40
71084;DHT22;58741;52.672;13.548;2022-10-15T03:22:36;12.90;96.60
71084;DHT22;58741;52.672;13.548;2022-10-15T03:25:02;12.90;96.50
71084;DHT22;58741;52.672;13.548;2022-10-15T03:27:27;13.00;96.80
71084;DHT22;58741;52.672;13.548;2022-10-15T03:29:53;12.90;96.60
71084;DHT22;58741;52.672;13.548;2022-10-15T03:32:18;12.90;96.70
71084;DHT22;58741;52.672;13.548;2022-10-15T03:34:44;12.90;96.90
71084;DHT22;58741;52.672;13.548;2022-10-15T03:37:09;13.00;96.80
71084;DHT22;58741;52.672;13.548;2022-10-15T03:39:35;13.00;96.70
71084;DHT22;58741;52.672;13.548;2022-10-15T03:42:00;13.00;96.40
71084;DHT22;58741;52.672;13.548;2022-10-15T03:44:25;13.00;96.50
71084;DHT22;58741;52.672;13.548;2022-10-15T03:46:51;12.90;96.30
71084;DHT22;58741;52.672;13.548;2022-10-15T03:49:16;13.00;96.60
71084;DHT22;58741;52.672;13.548;2022-10-15T03:51:42;13.00;96.50
71084;DHT22;58741;52.672;13.548;2022-10-15T03:54:07;13.00;96.60
71084;DHT22;58741;52.672;13.548;2022-10-15T03:56:33;13.00;96.40
71084;DHT22;58741;52.672;13.548;2022-10-15T03:58:58;12.90;96.70
71084;DHT22;58741;52.672;13.548;2022-10-15T04:01:24;13.00;96.50
71084;DHT22;58741;52.672;13.548;2022-10-15T04:03:52;13.00;96.30
71084;DHT22;58741;52.672;13.548;2022-10-15T04:06:18;12.90;96.10
71084;DHT22;58741;52.672;13.548;2022-10-15T04:08:44;12.90;96.10
71084;DHT22;58741;52.672;13.548;2022-10-15T04:11:10;12.90;95.90
71084;DHT22;58741;52.672;13.548;2022-10-15T04:13:35;13.00;96.50
71084;DHT22;58741;52.672;13.548;2022-10-15T04:16:03;12.90;96.30
71084;DHT22;58741;52.672;13.548;2022-10-15T04:18:29;13.00;96.30
71084;DHT22;58741;52.672;13.548;2022-10-15T04:20:58;12.90;96.40
71084;DHT22;58741;52.672;13.548;2022-10-15T04:23:23;13.00;96.20
71084;DHT22;58741;52.672;13.548;2022-10-15T04:25:49;13.00;96.20
71084;DHT22;58741;52.672;13.548;2022-10-15T04:28:14;12.90;96.50
71084;DHT22;58741;52.672;13.548;2022-10-15T04:30:40;12.90;96.30
71084;DHT22;58741;52.672;13.548;2022-10-15T04:33:05;13.00;96.50
71084;DHT22;58741;52.672;13.548;2022-10-15T04:35:31;13.00;96.70
71084;DHT22;58741;52.672;13.548;2022-10-15T04:37:57;13.00;96.40
71084;DHT22;58741;52.672;13.548;2022-10-15T04:40:23;13.00;96.90
71084;DHT22;58741;52.672;13.548;2022-10-15T04:42:49;13.00;97.10
71084;DHT22;58741;52.672;13.548;2022-10-15T04:45:14;13.00;97.00
71084;DHT22;58741;52.672;13.548;2022-10-15T04:47:40;13.00;97.20
71084;DHT22;58741;52.672;13.548;2022-10-15T04:50:06;13.00;96.80
71084;DHT22;58741;52.672;13.548;2022-10-15T04:52:33;13.00;97.20
71084;DHT22;58741;52.672;13.548;2022-10-15T04:54:58;13.00;97.10
71084;DHT22;58741;52.672;13.548;2022-10-15T04:57:24;13.00;97.00
71084;DHT22;58741;52.672;13.548;2022-10-15T04:59:51;13.10;97.10
71084;DHT22;58741;52.672;13.548;2022-10-15T05:02:17;13.10;97.00
71084;DHT22;58741;52.672;13.548;2022-10-15T05:04:43;13.10;97.00
71084;DHT22;58741;52.672;13.548;2022-10-15T05:07:08;13.10;96.80
71084;DHT22;58741;52.672;13.548;2022-10-15T05:09:34;13.10;96.80
71084;DHT22;58741;52.672;13.548;2022-10-15T05:11:59;13.10;97.10
71084;DHT22;58741;52.672;13.548;2022-10-15T05:14:25;13.10;96.70
71084;DHT22;58741;52.672;13.548;2022-10-15T05:16:50;13.10;97.10
71084;DHT22;58741;52.672;13.548;2022-10-15T05:19:16;13.10;96.70
71084;DHT22;58741;52.672;13.548;2022-10-15T05:21:42;13.10;97.00
71084;DHT22;58741;52.672;13.548;2022-10-15T05:24:08;13.10;97.40
71084;DHT22;58741;52.672;13.548;2022-10-15T05:26:34;13.10;97.20
71084;DHT22;58741;52.672;13.548;2022-10-15T05:29:00;13.10;96.80
71084;DHT22;58741;52.672;13.548;2022-10-15T05:31:28;13.10;97.00
71084;DHT22;58741;52.672;13.548;2022-10-15T05:33:54;13.10;96.70
71084;DHT22;58741;52.672;13.548;2022-10-15T05:36:25;13.10;97.20
71084;DHT22;58741;52.672;13.548;2022-10-15T05:39:02;13.10;97.30
71084;DHT22;58741;52.672;13.548;2022-10-15T05:41:28;13.10;97.00
71084;DHT22;58741;52.672;13.548;2022-10-15T05:43:55;13.10;96.80
71084;DHT22;58741;52.672;13.548;2022-10-15T05:46:22;13.10;96.80
71084;DHT22;58741;52.672;13.548;2022-10-15T05:48:49;13.10;96.80
71084;DHT22;58741;52.672;13.548;2022-10-15T05:51:15;13.10;96.70
71084;DHT22;58741;52.672;13.548;2022-10-15T05:53:40;13.10;96.60
71084;DHT22;58741;52.672;13.548;2022-10-15T05:56:07;13.10;96.30
71084;DHT22;58741;52.672;13.548;2022-10-15T05:58:34;13.10;96.20
71084;DHT22;58741;52.672;13.548;2022-10-15T06:01:01;13.10;96.30
71084;DHT22;58741;52.672;13.548;2022-10-15T06:03:27;13.10;96.20
71084;DHT22;58741;52.672;13.548;2022-10-15T06:05:53;13.10;96.10
71084;DHT22;58741;52.672;13.548;2022-10-15T06:08:19;13.10;96.50
71084;DHT22;58741;52.672;13.548;2022-10-15T06:10:46;13.10;96.90
71084;DHT22;58741;52.672;13.548;2022-10-15T06:13:12;13.10;96.80
71084;DHT22;58741;52.672;13.548;2022-10-15T06:15:39;13.10;96.50
71084;DHT22;58741;52.672;13.548;2022-10-15T06:18:05;13.10;96.50
71084;DHT22;58741;52.672;13.548;2022-10-15T06:20:30;13.10;96.30
71084;DHT22;58741;52.672;13.548;2022-10-15T06:23:00;13.10;96.50
71084;DHT22;58741;52.672;13.548;2022-10-15T06:25:26;13.10;96.70
71084;DHT22;58741;52.672;13.548;2022-10-15T06:27:52;13.10;96.60
71084;DHT22;58741;52.672;13.548;2022-10-15T06:30:18;13.10;96.60
71084;DHT22;58741;52.672;13.548;2022-10-15T06:32:48;13.10;96.80
71084;DHT22;58741;52.672;13.548;2022-10-15T06:35:14;13.20;96.90
71084;DHT22;58741;52.672;13.548;2022-10-15T06:37:39;13.10;96.80
71084;DHT22;58741;52.672;13.548;2022-10-15T06:40:05;13.10;96.80
71084;DHT22;58741;52.672;13.548;2022-10-15T06:42:31;13.20;96.60
71084;DHT22;58741;52.672;13.548;2022-10-15T06:44:56;13.10;96.60
71084;DHT22;58741;52.672;13.548;2022-10-15T06:47:22;13.20;96.60
71084;DHT22;58741;52.672;13.548;2022-10-15T06:49:47;13.20;96.50
71084;DHT22;58741;52.672;13.548;2022-10-15T06:52:13;13.20;96.50
71084;DHT22;58741;52.672;13.548;2022-10-15T06:54:38;13.20;97.00
71084;DHT22;58741;52.672;13.548;2022-10-15T06:57:04;13.20;96.90
71084;DHT22;58741;52.672;13.548;2022-10-15T06:59:29;13.30;96.90
71084;DHT22;58741;52.672;13.548;2022-10-15T07:01:54;13.30;96.70
71084;DHT22;58741;52.672;13.548;2022-10-15T07:04:22;13.30;96.70
71084;DHT22;58741;52.672;13.548;2022-10-15T07:06:47;13.40;96.70
71084;DHT22;58741;52.672;13.548;2022-10-15T07:09:12;13.40;96.70
71084;DHT22;58741;52.672;13.548;2022-10-15T07:11:38;13.40;96.70
71084;DHT22;58741;52.672;13.548;2022-10-15T07:14:04;13.40;96.80
71084;DHT22;58741;52.672;13.548;2022-10-15T07:16:29;13.50;96.80
71084;DHT22;58741;52.672;13.548;2022-10-15T07:18:55;13.50;97.00
71084;DHT22;58741;52.672;13.548;2022-10-15T07:21:20;13.50;96.90
71084;DHT22;58741;52.672;13.548;2022-10-15T07:23:46;13.60;97.00
71084;DHT22;58741;52.672;13.548;2022-10-15T07:26:11;13.60;97.00
71084;DHT22;58741;52.672;13.548;2022-10-15T07:28:37;13.60;97.20
71084;DHT22;58741;52.672;13.548;2022-10-15T07:31:05;13.70;97.50
71084;DHT22;58741;52.672;13.548;2022-10-15T07:33:31;13.70;97.30
71084;DHT22;58741;52.672;13.548;2022-10-15T07:36:01;13.80;97.40
71084;DHT22;58741;52.672;13.548;2022-10-15T07:38:26;13.80;97.20
71084;DHT22;58741;52.672;13.548;2022-10-15T07:40:52;13.80;96.90
71084;DHT22;58741;52.672;13.548;2022-10-15T07:43:17;13.90;96.90
71084;DHT22;58741;52.672;13.548;2022-10-15T07:45:46;13.90;96.80
71084;DHT22;58741;52.672;13.548;2022-10-15T07:48:12;13.90;96.80
71084;DHT22;58741;52.672;13.548;2022-10-15T07:50:38;14.00;96.80
71084;DHT22;58741;52.672;13.548;2022-10-15T07:53:03;14.00;96.80
71084;DHT22;58741;52.672;13.548;2022-10-15T07:55:29;14.10;96.90
71084;DHT22;58741;52.672;13.548;2022-10-15T07:57:57;14.10;96.70
71084;DHT22;58741;52.672;13.548;2022-10-15T08:00:23;14.10;96.70
71084;DHT22;58741;52.672;13.548;2022-10-15T08:02:49;14.20;96.70
71084;DHT22;58741;52.672;13.548;2022-10-15T08:05:14;14.20;96.70
71084;DHT22;58741;52.672;13.548;2022-10-15T08:07:40;14.30;96.80
71084;DHT22;58741;52.672;13.548;2022-10-15T08:10:07;14.30;96.70
71084;DHT22;58741;52.672;13.548;2022-10-15T08:12:32;14.40;96.80
71084;DHT22;58741;52.672;13.548;2022-10-15T08:14:58;14.40;96.70
71084;DHT22;58741;52.672;13.548;2022-10-15T08:17:23;14.50;96.70
71084;DHT22;58741;52.672;13.548;2022-10-15T08:19:49;14.50;96.60
71084;DHT22;58741;52.672;13.548;2022-10-15T08:22:14;14.60;96.50
71084;DHT22;58741;52.672;13.548;2022-10-15T08:24:40;14.70;96.40
71084;DHT22;58741;52.672;13.548;2022-10-15T08:27:05;14.80;96.90
71084;DHT22;58741;52.672;13.548;2022-10-15T08:29:31;14.90;96.80
71084;DHT22;58741;52.672;13.548;2022-10-15T08:31:56;15.10;96.80
71084;DHT22;58741;52.672;13.548;2022-10-15T08:34:22;15.20;96.80
71084;DHT22;58741;52.672;13.548;2022-10-15T08:36:47;15.30;96.20
71084;DHT22;58741;52.672;13.548;2022-10-15T08:39:13;15.40;96.10
71084;DHT22;58741;52.672;13.548;2022-10-15T08:41:47;15.50;95.90
71084;DHT22;58741;52.672;13.548;2022-10-15T08:44:30;15.70;95.10
71084;DHT22;58741;52.672;13.548;2022-10-15T08:47:12;15.80;94.90
71084;DHT22;58741;52.672;13.548;2022-10-15T08:49:46;15.90;94.60
71084;DHT22;58741;52.672;13.548;2022-10-15T08:52:44;16.00;94.30
71084;DHT22;58741;52.672;13.548;2022-10-15T08:55:12;16.00;93.90
71084;DHT22;58741;52.672;13.548;2022-10-15T09:01:11;16.20;94.30
71084;DHT22;58741;52.672;13.548;2022-10-15T09:06:25;16.70;94.10
71084;DHT22;58741;52.672;13.548;2022-10-15T09:11:46;17.00;90.90
71084;DHT22;58741;52.672;13.548;2022-10-15T09:14:17;17.00;92.10
71084;DHT22;58741;52.672;13.548;2022-10-15T09:16:52;17.10;92.00
71084;DHT22;58741;52.672;13.548;2022-10-15T09:19:20;17.10;92.40
71084;DHT22;58741;52.672;13.548;2022-10-15T09:21:48;17.20;91.60
71084;DHT22;58741;52.672;13.548;2022-10-15T09:24:22;17.20;91.70
71084;DHT22;58741;52.672;13.548;2022-10-15T09:30:35;17.40;91.50
71084;DHT22;58741;52.672;13.548;2022-10-15T09:33:07;17.50;92.20
71084;DHT22;58741;52.672;13.548;2022-10-15T09:35:43;17.70;91.80
71084;DHT22;58741;52.672;13.548;2022-10-15T09:38:24;17.90;91.70
71084;DHT22;58741;52.672;13.548;2022-10-15T09:43:45;18.30;90.40
71084;DHT22;58741;52.672;13.548;2022-10-15T09:46:12;18.40;90.40
71084;DHT22;58741;52.672;13.548;2022-10-15T09:48:48;18.50;87.60
71084;DHT22;58741;52.672;13.548;2022-10-15T09:51:32;18.50;87.70
71084;DHT22;58741;52.672;13.548;2022-10-15T09:54:22;18.60;89.30
71084;DHT22;58741;52.672;13.548;2022-10-15T09:56:52;18.60;87.70
71084;DHT22;58741;52.672;13.548;2022-10-15T09:59:20;18.70;87.90
71084;DHT22;58741;52.672;13.548;2022-10-15T10:02:01;18.70;88.00
71084;DHT22;58741;52.672;13.548;2022-10-15T10:04:32;18.70;87.50
71084;DHT22;58741;52.672;13.548;2022-10-15T10:07:00;18.80;84.60
71084;DHT22;58741;52.672;13.548;2022-10-15T10:09:38;18.80;85.00
71084;DHT22;58741;52.672;13.548;2022-10-15T10:12:19;18.80;87.30
71084;DHT22;58741;52.672;13.548;2022-10-15T10:14:54;18.80;81.80
71084;DHT22;58741;52.672;13.548;2022-10-15T10:17:22;18.80;84.20
71084;DHT22;58741;52.672;13.548;2022-10-15T10:22:51;18.80;84.00
71084;DHT22;58741;52.672;13.548;2022-10-15T10:25:27;18.90;85.20
71084;DHT22;58741;52.672;13.548;2022-10-15T10:28:18;19.00;86.60
71084;DHT22;58741;52.672;13.548;2022-10-15T10:31:01;19.10;85.90
71084;DHT22;58741;52.672;13.548;2022-10-15T10:33:47;19.10;84.00
71084;DHT22;58741;52.672;13.548;2022-10-15T10:44:37;19.50;81.70
71084;DHT22;58741;52.672;13.548;2022-10-15T10:47:10;19.30;77.90
71084;DHT22;58741;52.672;13.548;2022-10-15T10:49:48;19.30;81.20
71084;DHT22;58741;52.672;13.548;2022-10-15T10:52:27;19.20;81.70
71084;DHT22;58741;52.672;13.548;2022-10-15T10:55:01;19.30;82.20
71084;DHT22;58741;52.672;13.548;2022-10-15T10:57:37;19.40;81.90
71084;DHT22;58741;52.672;13.548;2022-10-15T11:00:06;19.40;82.50
71084;DHT22;58741;52.672;13.548;2022-10-15T11:02:33;19.50;80.80
71084;DHT22;58741;52.672;13.548;2022-10-15T11:05:03;19.60;81.40
71084;DHT22;58741;52.672;13.548;2022-10-15T11:07:38;19.60;80.20
71084;DHT22;58741;52.672;13.548;2022-10-15T11:10:23;19.60;80.70
71084;DHT22;58741;52.672;13.548;2022-10-15T11:15:55;19.60;80.50
71084;DHT22;58741;52.672;13.548;2022-10-15T11:18:33;19.60;80.30
71084;DHT22;58741;52.672;13.548;2022-10-15T11:21:29;19.60;80.90
71084;DHT22;58741;52.672;13.548;2022-10-15T11:27:14;19.70;80.40
71084;DHT22;58741;52.672;13.548;2022-10-15T11:29:58;19.70;81.50
71084;DHT22;58741;52.672;13.548;2022-10-15T11:35:31;19.70;81.80
71084;DHT22;58741;52.672;13.548;2022-10-15T11:46:30;19.90;78.70
71084;DHT22;58741;52.672;13.548;2022-10-15T11:49:21;19.80;79.60
71084;DHT22;58741;52.672;13.548;2022-10-15T11:52:02;19.80;77.00
71084;DHT22;58741;52.672;13.548;2022-10-15T11:54:37;19.70;78.70
71084;DHT22;58741;52.672;13.548;2022-10-15T11:57:08;19.70;76.60
71084;DHT22;58741;52.672;13.548;2022-10-15T11:59:59;19.60;76.50
71084;DHT22;58741;52.672;13.548;2022-10-15T12:02:34;19.50;79.00
71084;DHT22;58741;52.672;13.548;2022-10-15T12:05:06;19.60;80.10
71084;DHT22;58741;52.672;13.548;2022-10-15T12:07:41;19.60;80.10
71084;DHT22;58741;52.672;13.548;2022-10-15T12:10:29;19.60;78.70
71084;DHT22;58741;52.672;13.548;2022-10-15T12:15:59;19.60;79.80
71084;DHT22;58741;52.672;13.548;2022-10-15T12:18:40;19.50;80.10
71084;DHT22;58741;52.672;13.548;2022-10-15T12:21:39;19.50;80.50
71084;DHT22;58741;52.672;13.548;2022-10-15T12:27:27;19.60;80.00
71084;DHT22;58741;52.672;13.548;2022-10-15T12:32:55;19.60;80.20
71084;DHT22;58741;52.672;13.548;2022-10-15T12:35:27;19.50;80.10
71084;DHT22;58741;52.672;13.548;2022-10-15T12:37:57;19.50;80.10
71084;DHT22;58741;52.672;13.548;2022-10-15T12:40:32;19.60;80.70
71084;DHT22;58741;52.672;13.548;2022-10-15T12:43:13;19.60;80.90
71084;DHT22;58741;52.672;13.548;2022-10-15T12:45:56;19.60;81.10
71084;DHT22;58741;52.672;13.548;2022-10-15T12:53:41;19.70;79.60
71084;DHT22;58741;52.672;13.548;2022-10-15T12:58:38;19.80;79.20
71084;DHT22;58741;52.672;13.548;2022-10-15T13:11:52;19.60;79.30
71084;DHT22;58741;52.672;13.548;2022-10-15T13:14:39;19.60;79.80
71084;DHT22;58741;52.672;13.548;2022-10-15T13:17:18;19.60;79.20
71084;DHT22;58741;52.672;13.548;2022-10-15T13:19:58;19.60;79.60
71084;DHT22;58741;52.672;13.548;2022-10-15T13:22:26;19.60;79.90
71084;DHT22;58741;52.672;13.548;2022-10-15T13:24:52;19.60;80.10
71084;DHT22;58741;52.672;13.548;2022-10-15T13:27:24;19.60;79.30
71084;DHT22;58741;52.672;13.548;2022-10-15T13:29:54;19.50;78.70
71084;DHT22;58741;52.672;13.548;2022-10-15T13:32:20;19.50;78.40
71084;DHT22;58741;52.672;13.548;2022-10-15T13:34:46;19.50;78.60
71084;DHT22;58741;52.672;13.548;2022-10-15T13:37:17;19.40;79.10
71084;DHT22;58741;52.672;13.548;2022-10-15T13:39:44;19.40;79.20
71084;DHT22;58741;52.672;13.548;2022-10-15T13:42:16;19.40;78.80
71084;DHT22;58741;52.672;13.548;2022-10-15T13:44:42;19.30;79.80
71084;DHT22;58741;52.672;13.548;2022-10-15T13:47:27;19.30;78.50
71084;DHT22;58741;52.672;13.548;2022-10-15T13:50:19;19.20;78.80
71084;DHT22;58741;52.672;13.548;2022-10-15T13:52:55;19.30;78.50
71084;DHT22;58741;52.672;13.548;2022-10-15T13:55:23;19.30;79.50
71084;DHT22;58741;52.672;13.548;2022-10-15T13:57:50;19.30;79.10
71084;DHT22;58741;52.672;13.548;2022-10-15T14:00:28;19.30;78.20
71084;DHT22;58741;52.672;13.548;2022-10-15T14:05:33;19.30;78.70
71084;DHT22;58741;52.672;13.548;2022-10-15T14:07:58;19.30;78.90
71084;DHT22;58741;52.672;13.548;2022-10-15T14:10:24;19.30;79.00
71084;DHT22;58741;52.672;13.548;2022-10-15T14:12:49;19.20;78.80
71084;DHT22;58741;52.672;13.548;2022-10-15T14:15:43;19.20;79.20
71084;DHT22;58741;52.672;13.548;2022-10-15T14:18:12;19.20;79.50
71084;DHT22;58741;52.672;13.548;2022-10-15T14:20:47;19.20;79.50
71084;DHT22;58741;52.672;13.548;2022-10-15T14:23:15;19.20;79.70
71084;DHT22;58741;52.672;13.548;2022-10-15T14:25:41;19.20;79.90
71084;DHT22;58741;52.672;13.548;2022-10-15T14:28:17;19.10;79.70
71084;DHT22;58741;52.672;13.548;2022-10-15T14:30:44;19.10;79.80
71084;DHT22;58741;52.672;13.548;2022-10-15T14:33:32;19.00;79.50
71084;DHT22;58741;52.672;13.548;2022-10-15T14:36:23;18.90;79.80
71084;DHT22;58741;52.672;13.548;2022-10-15T14:38:49;18.90;79.90
71084;DHT22;58741;52.672;13.548;2022-10-15T14:41:30;18.90;79.80
71084;DHT22;58741;52.672;13.548;2022-10-15T14:46:41;18.80;80.00
71084;DHT22;58741;52.672;13.548;2022-10-15T14:49:31;18.80;80.20
71084;DHT22;58741;52.672;13.548;2022-10-15T14:52:02;18.70;80.20
71084;DHT22;58741;52.672;13.548;2022-10-15T14:54:38;18.60;80.40
71084;DHT22;58741;52.672;13.548;2022-10-15T14:57:15;18.60;80.70
71084;DHT22;58741;52.672;13.548;2022-10-15T14:59:41;18.50;80.80
71084;DHT22;58741;52.672;13.548;2022-10-15T15:02:14;18.40;81.10
71084;DHT22;58741;52.672;13.548;2022-10-15T15:04:42;18.40;81.20
71084;DHT22;58741;52.672;13.548;2022-10-15T15:07:17;18.30;81.40
71084;DHT22;58741;52.672;13.548;2022-10-15T15:09:46;18.30;81.70
71084;DHT22;58741;52.672;13.548;2022-10-15T15:12:18;18.30;82.00
71084;DHT22;58741;52.672;13.548;2022-10-15T15:14:45;18.20;82.20
71084;DHT22;58741;52.672;13.548;2022-10-15T15:17:17;18.20;82.40
71084;DHT22;58741;52.672;13.548;2022-10-15T15:19:43;18.20;82.60
71084;DHT22;58741;52.672;13.548;2022-10-15T15:22:15;18.10;82.80
71084;DHT22;58741;52.672;13.548;2022-10-15T15:24:42;18.20;83.10
71084;DHT22;58741;52.672;13.548;2022-10-15T15:27:20;18.10;83.10
71084;DHT22;58741;52.672;13.548;2022-10-15T15:29:47;18.10;83.30
71084;DHT22;58741;52.672;13.548;2022-10-15T15:32:12;18.10;83.40
71084;DHT22;58741;52.672;13.548;2022-10-15T15:34:38;18.10;83.40
71084;DHT22;58741;52.672;13.548;2022-10-15T15:37:20;18.00;83.50
71084;DHT22;58741;52.672;13.548;2022-10-15T15:39:46;18.00;83.70
71084;DHT22;58741;52.672;13.548;2022-10-15T15:42:17;17.90;83.80
71084;DHT22;58741;52.672;13.548;2022-10-15T15:44:43;17.80;83.90
71084;DHT22;58741;52.672;13.548;2022-10-15T15:47:10;17.80;84.10
71084;DHT22;58741;52.672;13.548;2022-10-15T15:49:36;17.80;84.40
71084;DHT22;58741;52.672;13.548;2022-10-15T15:52:02;17.80;84.50
71084;DHT22;58741;52.672;13.548;2022-10-15T15:54:29;17.70;84.70
71084;DHT22;58741;52.672;13.548;2022-10-15T15:56:54;17.70;85.00
71084;DHT22;58741;52.672;13.548;2022-10-15T15:59:20;17.60;85.20
71084;DHT22;58741;52.672;13.548;2022-10-15T16:01:46;17.60;85.60
71084;DHT22;58741;52.672;13.548;2022-10-15T16:04:12;17.50;85.60
71084;DHT22;58741;52.672;13.548;2022-10-15T16:06:38;17.50;85.50
71084;DHT22;58741;52.672;13.548;2022-10-15T16:09:04;17.40;85.80
71084;DHT22;58741;52.672;13.548;2022-10-15T16:11:31;17.40;85.90
71084;DHT22;58741;52.672;13.548;2022-10-15T16:13:57;17.40;86.10
71084;DHT22;58741;52.672;13.548;2022-10-15T16:16:22;17.30;86.40
71084;DHT22;58741;52.672;13.548;2022-10-15T16:18:49;17.30;86.30
71084;DHT22;58741;52.672;13.548;2022-10-15T16:21:20;17.30;86.50
71084;DHT22;58741;52.672;13.548;2022-10-15T16:23:46;17.20;86.50
71084;DHT22;58741;52.672;13.548;2022-10-15T16:26:12;17.10;86.50
71084;DHT22;58741;52.672;13.548;2022-10-15T16:28:37;17.10;86.80
71084;DHT22;58741;52.672;13.548;2022-10-15T16:31:14;17.10;87.20
71084;DHT22;58741;52.672;13.548;2022-10-15T16:33:40;17.00;87.00
71084;DHT22;58741;52.672;13.548;2022-10-15T16:36:05;16.90;87.00
71084;DHT22;58741;52.672;13.548;2022-10-15T16:38:31;16.90;87.30
71084;DHT22;58741;52.672;13.548;2022-10-15T16:40:56;16.80;87.30
71084;DHT22;58741;52.672;13.548;2022-10-15T16:43:22;16.70;87.60
71084;DHT22;58741;52.672;13.548;2022-10-15T16:45:58;16.70;87.80
71084;DHT22;58741;52.672;13.548;2022-10-15T16:48:24;16.60;88.20
71084;DHT22;58741;52.672;13.548;2022-10-15T16:51:13;16.60;88.20
71084;DHT22;58741;52.672;13.548;2022-10-15T16:53:40;16.50;88.50
71084;DHT22;58741;52.672;13.548;2022-10-15T16:56:12;16.50;88.30
71084;DHT22;58741;52.672;13.548;2022-10-15T16:58:38;16.40;88.60
71084;DHT22;58741;52.672;13.548;2022-10-15T17:01:06;16.30;90.00
71084;DHT22;58741;52.672;13.548;2022-10-15T17:03:34;16.30;89.70
71084;DHT22;58741;52.672;13.548;2022-10-15T17:06:05;16.20;90.00
71084;DHT22;58741;52.672;13.548;2022-10-15T17:08:39;16.20;90.10